Shear Water — WDB2424 — position and weather

sailwx.info

Track history (hours):
 
Tides and Currents Weather Stations Pressure Air Temp Water Temp Dewpoint Dewpoint Depression Visibility Wind Speed Wind Dir Waves Ship Positions

Shear Water

Owner: N.O.A.A., santa barbara, CA. More information available from US FCC via Universal Licensing System and Coast Guard Vessel Documentation Center.

Last reported at 2018-Jun-21 18:00 UTC. Time now 2018-Jun-21 18:07 UTC.
Position N 34°15' W 119°54'.

Length 20 m.

MMSI: 366875820.

Date/timePositionNaut miles runAvg speedWind from/ knotsBaromVisibWave heightAir tempDewpointWater temp
2018-Jun-21 18:00N 34°15' W 119°54'3 5.8
2018-Jun-21 17:30N 34°12' W 119°55'0 0.5
2018-Jun-21 17:00N 34°12' W 119°56'3 4.8
2018-Jun-21 16:25N 34°09' W 119°57'4 9.5
2018-Jun-21 16:00N 34°06' W 119°60'2 3.7
2018-Jun-21 15:29N 34°05' W 120°01'510.4
2018-Jun-21 15:00N 34°09' W 119°57'917.6
2018-Jun-21 14:30N 34°16' W 119°50'918.1
2018-Jun-21 14:00N 34°22' W 119°43'3 0.2
2018-Jun-20 20:54N 34°24' W 119°42'0 0.0
2018-Jun-20 20:27N 34°24' W 119°42'0 0.0
2018-Jun-20 19:47N 34°24' W 119°42'  
Track history (hours):
 
Tides and Currents Weather Stations Pressure Air Temp Water Temp Dewpoint Dewpoint Depression Visibility Wind Speed Wind Dir Waves Ship Positions

Shear Water

Owner: N.O.A.A., santa barbara, CA. More information available from US FCC via Universal Licensing System and Coast Guard Vessel Documentation Center.

Last reported at 2018-Jun-21 18:00 UTC. Time now 2018-Jun-21 18:07 UTC.
Position N 34°15' W 119°54'.

Length 20 m.

MMSI: 366875820.

Date/timePositionNaut miles runAvg speedWind from/ knotsBaromVisibWave heightAir tempDewpointWater temp
2018-Jun-21 18:00N 34°15' W 119°54'3 5.8
2018-Jun-21 17:30N 34°12' W 119°55'0 0.5
2018-Jun-21 17:00N 34°12' W 119°56'3 4.8
2018-Jun-21 16:25N 34°09' W 119°57'4 9.5
2018-Jun-21 16:00N 34°06' W 119°60'2 3.7
2018-Jun-21 15:29N 34°05' W 120°01'510.4
2018-Jun-21 15:00N 34°09' W 119°57'917.6
2018-Jun-21 14:30N 34°16' W 119°50'918.1
2018-Jun-21 14:00N 34°22' W 119°43'3 0.2
2018-Jun-20 20:54N 34°24' W 119°42'0 0.0
2018-Jun-20 20:27N 34°24' W 119°42'0 0.0
2018-Jun-20 19:47N 34°24' W 119°42'  

Dump ship's entire track history